Aérodrome :
LOGIN :

S'inscrire | Disclaimer

   EN    FR    IT 

 










Légende :    VFR   VFR Marginal   IFR   IFR Intensif   IFR Très Intensif
Visi : 
Plafond : 
>= 8 km
>= 3000ft
5 à 8 km
1000 à 3000 ft
1500m à 5 km
500 à 1000 ft
800 à 1500m
200 à 500 ft
< 800m
< 200 ft
Symboles :   Orages  Brouillard  Fortes neiges  Fortes précipitations  Vent > 20 kt
SIGMETs :   Divers  Orages  Givrage  Turbulence  Onde Orograph.  Cendres Volcan.







- Altitude de l'aérodrome : 1276 ft
- Code IATA : STR


EDDS - Stuttgart

DERNIER METAR :
  • 271320Z 07007KT 050V110 CAVOK 27/09 Q1019 NOSIG

METARs EXPIRÉS :
  • 271250Z VRB07KT CAVOK 27/08 Q1019 NOSIG
  • 271220Z 07008KT 040V110 CAVOK 27/11 Q1019 NOSIG
  • 271150Z VRB06KT CAVOK 26/10 Q1019 NOSIG
  • 271120Z VRB06KT CAVOK 26/11 Q1020 NOSIG
  • 271050Z 10006KT 040V190 CAVOK 26/11 Q1020 NOSIG

TAF TAF EDDS
Valide du 27 à 12h jusqu'au 28 à 12h UTC


271100Z 2712/2812 08006KT CAVOK
BECMG 2718/2720 VRB03KT
Pas de NOTAMs connus pour ce terrain.



MET'MAP, la Météo Aéronautique d'un coup d'oeil ! - Copyright ORBIFLY Décembre 2007 - Disclaimer

ORBIFLY MET'MAP TEAM :

Programmation & Développement : Alexandra Zaïnal
Conception & Développement : Baudouin d'Aumeries
Co-Programmation & Développement : Marc-Olivier Méhu
Soutien technique & logistique : Manuel Goepfert

Contact : metmap@orbifly.com




SOURCES & CREDITS :

   NOAA